sensor_id;sensor_type;location;lat;lon;timestamp;P1;durP1;ratioP1;P2;durP2;ratioP2
69894;SDS011;57172;52.034;5.090;2024-03-22T00:02:02;43.25;;;18.67;;
69894;SDS011;57172;52.034;5.090;2024-03-22T00:04:28;42.55;;;19.98;;
69894;SDS011;57172;52.034;5.090;2024-03-22T00:06:54;43.47;;;19.57;;
69894;SDS011;57172;52.034;5.090;2024-03-22T00:09:20;46.67;;;20.20;;
69894;SDS011;57172;52.034;5.090;2024-03-22T00:11:46;47.22;;;19.33;;
69894;SDS011;57172;52.034;5.090;2024-03-22T00:14:12;42.43;;;18.53;;
69894;SDS011;57172;52.034;5.090;2024-03-22T00:16:38;47.22;;;20.75;;
69894;SDS011;57172;52.034;5.090;2024-03-22T00:19:04;45.00;;;19.75;;
69894;SDS011;57172;52.034;5.090;2024-03-22T00:21:30;47.75;;;21.45;;
69894;SDS011;57172;52.034;5.090;2024-03-22T00:23:56;44.10;;;20.88;;
69894;SDS011;57172;52.034;5.090;2024-03-22T00:26:23;45.42;;;19.27;;
69894;SDS011;57172;52.034;5.090;2024-03-22T00:28:49;45.38;;;19.80;;
69894;SDS011;57172;52.034;5.090;2024-03-22T00:31:15;47.92;;;20.67;;
69894;SDS011;57172;52.034;5.090;2024-03-22T00:33:41;44.00;;;20.05;;
69894;SDS011;57172;52.034;5.090;2024-03-22T00:36:07;45.43;;;20.43;;
69894;SDS011;57172;52.034;5.090;2024-03-22T00:38:34;41.15;;;19.00;;
69894;SDS011;57172;52.034;5.090;2024-03-22T00:41:00;42.70;;;20.33;;
69894;SDS011;57172;52.034;5.090;2024-03-22T00:43:26;40.45;;;18.20;;
69894;SDS011;57172;52.034;5.090;2024-03-22T00:45:52;45.45;;;20.17;;
69894;SDS011;57172;52.034;5.090;2024-03-22T00:48:17;46.78;;;19.27;;
69894;SDS011;57172;52.034;5.090;2024-03-22T00:50:44;46.60;;;19.45;;
69894;SDS011;57172;52.034;5.090;2024-03-22T00:53:09;45.92;;;20.00;;
69894;SDS011;57172;52.034;5.090;2024-03-22T00:55:37;44.15;;;20.25;;
69894;SDS011;57172;52.034;5.090;2024-03-22T00:58:03;41.17;;;18.90;;
69894;SDS011;57172;52.034;5.090;2024-03-22T01:00:29;48.67;;;20.67;;
69894;SDS011;57172;52.034;5.090;2024-03-22T01:02:54;43.17;;;19.92;;
69894;SDS011;57172;52.034;5.090;2024-03-22T01:05:20;42.22;;;18.48;;
69894;SDS011;57172;52.034;5.090;2024-03-22T01:07:46;43.63;;;20.30;;
69894;SDS011;57172;52.034;5.090;2024-03-22T01:10:12;44.53;;;20.35;;
69894;SDS011;57172;52.034;5.090;2024-03-22T01:12:38;43.22;;;19.42;;
69894;SDS011;57172;52.034;5.090;2024-03-22T01:15:05;43.47;;;18.55;;
69894;SDS011;57172;52.034;5.090;2024-03-22T01:17:32;41.10;;;18.27;;
69894;SDS011;57172;52.034;5.090;2024-03-22T01:19:58;46.97;;;20.48;;
69894;SDS011;57172;52.034;5.090;2024-03-22T01:22:24;51.38;;;21.63;;
69894;SDS011;57172;52.034;5.090;2024-03-22T01:24:50;43.33;;;19.70;;
69894;SDS011;57172;52.034;5.090;2024-03-22T01:27:16;41.72;;;19.25;;
69894;SDS011;57172;52.034;5.090;2024-03-22T01:29:42;46.67;;;20.08;;
69894;SDS011;57172;52.034;5.090;2024-03-22T01:32:07;47.63;;;20.10;;
69894;SDS011;57172;52.034;5.090;2024-03-22T01:34:33;43.33;;;20.10;;
69894;SDS011;57172;52.034;5.090;2024-03-22T01:37:00;44.53;;;20.60;;
69894;SDS011;57172;52.034;5.090;2024-03-22T01:39:26;47.70;;;20.40;;
69894;SDS011;57172;52.034;5.090;2024-03-22T01:41:52;44.72;;;19.42;;
69894;SDS011;57172;52.034;5.090;2024-03-22T01:44:18;40.70;;;18.23;;
69894;SDS011;57172;52.034;5.090;2024-03-22T01:46:44;37.80;;;17.90;;
69894;SDS011;57172;52.034;5.090;2024-03-22T01:49:12;45.70;;;19.75;;
69894;SDS011;57172;52.034;5.090;2024-03-22T01:51:41;43.25;;;19.20;;
69894;SDS011;57172;52.034;5.090;2024-03-22T01:54:08;46.40;;;20.73;;
69894;SDS011;57172;52.034;5.090;2024-03-22T01:56:38;42.90;;;20.50;;
69894;SDS011;57172;52.034;5.090;2024-03-22T01:59:04;46.03;;;19.35;;
69894;SDS011;57172;52.034;5.090;2024-03-22T02:01:31;43.42;;;18.85;;
69894;SDS011;57172;52.034;5.090;2024-03-22T02:03:58;46.33;;;19.63;;
69894;SDS011;57172;52.034;5.090;2024-03-22T02:06:24;50.87;;;22.13;;
69894;SDS011;57172;52.034;5.090;2024-03-22T02:08:50;52.25;;;22.70;;
69894;SDS011;57172;52.034;5.090;2024-03-22T02:11:16;50.30;;;23.80;;
69894;SDS011;57172;52.034;5.090;2024-03-22T02:13:42;46.47;;;21.15;;
69894;SDS011;57172;52.034;5.090;2024-03-22T02:16:08;54.38;;;22.60;;
69894;SDS011;57172;52.034;5.090;2024-03-22T02:18:34;54.03;;;22.83;;
69894;SDS011;57172;52.034;5.090;2024-03-22T02:21:00;48.10;;;19.80;;
69894;SDS011;57172;52.034;5.090;2024-03-22T02:23:36;49.83;;;21.75;;
69894;SDS011;57172;52.034;5.090;2024-03-22T02:26:03;51.60;;;23.67;;
69894;SDS011;57172;52.034;5.090;2024-03-22T02:28:30;55.30;;;23.00;;
69894;SDS011;57172;52.034;5.090;2024-03-22T02:30:58;56.13;;;23.70;;
69894;SDS011;57172;52.034;5.090;2024-03-22T02:33:24;49.28;;;21.23;;
69894;SDS011;57172;52.034;5.090;2024-03-22T02:35:50;58.70;;;23.70;;
69894;SDS011;57172;52.034;5.090;2024-03-22T02:38:17;51.30;;;22.10;;
69894;SDS011;57172;52.034;5.090;2024-03-22T02:40:43;51.97;;;21.00;;
69894;SDS011;57172;52.034;5.090;2024-03-22T02:43:10;58.45;;;24.15;;
69894;SDS011;57172;52.034;5.090;2024-03-22T02:45:36;61.67;;;23.77;;
69894;SDS011;57172;52.034;5.090;2024-03-22T02:48:02;54.40;;;21.77;;
69894;SDS011;57172;52.034;5.090;2024-03-22T02:50:32;63.83;;;22.73;;
69894;SDS011;57172;52.034;5.090;2024-03-22T02:52:58;59.70;;;21.77;;
69894;SDS011;57172;52.034;5.090;2024-03-22T02:55:24;60.13;;;22.02;;
69894;SDS011;57172;52.034;5.090;2024-03-22T02:57:50;53.47;;;20.43;;
69894;SDS011;57172;52.034;5.090;2024-03-22T03:00:16;54.92;;;20.70;;
69894;SDS011;57172;52.034;5.090;2024-03-22T03:02:43;54.78;;;21.27;;
69894;SDS011;57172;52.034;5.090;2024-03-22T03:05:10;55.67;;;21.55;;
69894;SDS011;57172;52.034;5.090;2024-03-22T03:07:36;52.13;;;20.90;;
69894;SDS011;57172;52.034;5.090;2024-03-22T03:10:02;54.78;;;20.08;;
69894;SDS011;57172;52.034;5.090;2024-03-22T03:12:28;56.30;;;21.63;;
69894;SDS011;57172;52.034;5.090;2024-03-22T03:14:54;48.83;;;18.77;;
69894;SDS011;57172;52.034;5.090;2024-03-22T03:17:20;52.58;;;20.48;;
69894;SDS011;57172;52.034;5.090;2024-03-22T03:19:46;44.50;;;17.38;;
69894;SDS011;57172;52.034;5.090;2024-03-22T03:22:13;45.35;;;17.40;;
69894;SDS011;57172;52.034;5.090;2024-03-22T03:24:39;44.87;;;16.77;;
69894;SDS011;57172;52.034;5.090;2024-03-22T03:27:04;45.65;;;17.38;;
69894;SDS011;57172;52.034;5.090;2024-03-22T03:29:30;37.58;;;14.05;;
69894;SDS011;57172;52.034;5.090;2024-03-22T03:31:56;41.70;;;15.57;;
69894;SDS011;57172;52.034;5.090;2024-03-22T03:34:22;44.10;;;16.23;;
69894;SDS011;57172;52.034;5.090;2024-03-22T03:36:48;47.75;;;17.33;;
69894;SDS011;57172;52.034;5.090;2024-03-22T03:39:14;42.13;;;15.93;;
69894;SDS011;57172;52.034;5.090;2024-03-22T03:41:40;46.53;;;17.57;;
69894;SDS011;57172;52.034;5.090;2024-03-22T03:44:06;46.35;;;16.17;;
69894;SDS011;57172;52.034;5.090;2024-03-22T03:46:32;48.25;;;18.02;;
69894;SDS011;57172;52.034;5.090;2024-03-22T03:48:57;45.97;;;16.20;;
69894;SDS011;57172;52.034;5.090;2024-03-22T03:51:23;49.42;;;19.00;;
69894;SDS011;57172;52.034;5.090;2024-03-22T03:53:49;40.67;;;16.10;;
69894;SDS011;57172;52.034;5.090;2024-03-22T03:56:15;41.33;;;15.87;;
69894;SDS011;57172;52.034;5.090;2024-03-22T03:58:41;40.58;;;15.95;;
69894;SDS011;57172;52.034;5.090;2024-03-22T04:01:07;47.40;;;18.27;;
69894;SDS011;57172;52.034;5.090;2024-03-22T04:03:34;43.58;;;16.67;;
69894;SDS011;57172;52.034;5.090;2024-03-22T04:06:00;41.88;;;15.90;;
69894;SDS011;57172;52.034;5.090;2024-03-22T04:08:28;43.35;;;17.10;;
69894;SDS011;57172;52.034;5.090;2024-03-22T04:10:56;47.45;;;18.15;;
69894;SDS011;57172;52.034;5.090;2024-03-22T04:13:26;44.20;;;18.13;;
69894;SDS011;57172;52.034;5.090;2024-03-22T04:15:53;39.85;;;16.27;;
69894;SDS011;57172;52.034;5.090;2024-03-22T04:18:19;44.63;;;17.95;;
69894;SDS011;57172;52.034;5.090;2024-03-22T04:20:57;52.88;;;19.08;;
69894;SDS011;57172;52.034;5.090;2024-03-22T04:23:27;41.83;;;17.48;;
69894;SDS011;57172;52.034;5.090;2024-03-22T04:25:53;45.33;;;19.07;;
69894;SDS011;57172;52.034;5.090;2024-03-22T04:28:20;43.30;;;17.48;;
69894;SDS011;57172;52.034;5.090;2024-03-22T04:30:56;51.47;;;19.50;;
69894;SDS011;57172;52.034;5.090;2024-03-22T04:33:29;44.17;;;16.77;;
69894;SDS011;57172;52.034;5.090;2024-03-22T04:35:56;45.17;;;18.60;;
69894;SDS011;57172;52.034;5.090;2024-03-22T04:38:23;53.60;;;18.77;;
69894;SDS011;57172;52.034;5.090;2024-03-22T04:40:50;50.10;;;19.27;;
69894;SDS011;57172;52.034;5.090;2024-03-22T04:43:16;42.95;;;17.38;;
69894;SDS011;57172;52.034;5.090;2024-03-22T04:45:43;48.33;;;18.52;;
69894;SDS011;57172;52.034;5.090;2024-03-22T04:48:09;48.90;;;18.93;;
69894;SDS011;57172;52.034;5.090;2024-03-22T04:50:37;44.45;;;18.25;;
69894;SDS011;57172;52.034;5.090;2024-03-22T04:53:03;40.75;;;17.20;;
69894;SDS011;57172;52.034;5.090;2024-03-22T04:55:30;46.70;;;18.05;;
69894;SDS011;57172;52.034;5.090;2024-03-22T04:57:58;47.72;;;20.67;;
69894;SDS011;57172;52.034;5.090;2024-03-22T05:00:24;45.97;;;17.95;;
69894;SDS011;57172;52.034;5.090;2024-03-22T05:02:51;46.15;;;18.38;;
69894;SDS011;57172;52.034;5.090;2024-03-22T05:05:17;51.80;;;20.35;;
69894;SDS011;57172;52.034;5.090;2024-03-22T05:07:44;53.70;;;21.38;;
69894;SDS011;57172;52.034;5.090;2024-03-22T05:10:10;49.05;;;19.65;;
69894;SDS011;57172;52.034;5.090;2024-03-22T05:12:37;47.95;;;20.85;;
69894;SDS011;57172;52.034;5.090;2024-03-22T05:15:03;47.42;;;19.50;;
69894;SDS011;57172;52.034;5.090;2024-03-22T05:17:29;40.67;;;17.40;;
69894;SDS011;57172;52.034;5.090;2024-03-22T05:20:00;51.17;;;19.58;;
69894;SDS011;57172;52.034;5.090;2024-03-22T05:22:30;46.93;;;18.93;;
69894;SDS011;57172;52.034;5.090;2024-03-22T05:24:56;42.53;;;17.48;;
69894;SDS011;57172;52.034;5.090;2024-03-22T05:27:22;52.40;;;20.27;;
69894;SDS011;57172;52.034;5.090;2024-03-22T05:29:48;39.83;;;17.63;;
69894;SDS011;57172;52.034;5.090;2024-03-22T05:32:14;41.53;;;16.40;;
69894;SDS011;57172;52.034;5.090;2024-03-22T05:34:40;49.55;;;19.00;;
69894;SDS011;57172;52.034;5.090;2024-03-22T05:37:06;40.08;;;15.80;;
69894;SDS011;57172;52.034;5.090;2024-03-22T05:39:34;44.53;;;16.53;;
69894;SDS011;57172;52.034;5.090;2024-03-22T05:42:00;44.22;;;17.63;;
69894;SDS011;57172;52.034;5.090;2024-03-22T05:44:26;41.35;;;16.98;;
69894;SDS011;57172;52.034;5.090;2024-03-22T05:46:52;38.05;;;16.30;;
69894;SDS011;57172;52.034;5.090;2024-03-22T05:49:18;46.80;;;19.27;;
69894;SDS011;57172;52.034;5.090;2024-03-22T05:51:44;43.38;;;17.25;;
69894;SDS011;57172;52.034;5.090;2024-03-22T05:54:09;44.58;;;17.48;;
69894;SDS011;57172;52.034;5.090;2024-03-22T05:56:35;45.90;;;18.23;;
69894;SDS011;57172;52.034;5.090;2024-03-22T05:59:01;39.00;;;16.73;;
69894;SDS011;57172;52.034;5.090;2024-03-22T06:01:27;47.22;;;18.13;;
69894;SDS011;57172;52.034;5.090;2024-03-22T06:03:53;42.13;;;16.90;;
69894;SDS011;57172;52.034;5.090;2024-03-22T06:06:19;42.88;;;16.92;;
69894;SDS011;57172;52.034;5.090;2024-03-22T06:08:50;45.20;;;17.08;;
69894;SDS011;57172;52.034;5.090;2024-03-22T06:11:19;39.25;;;16.23;;
69894;SDS011;57172;52.034;5.090;2024-03-22T06:13:45;38.30;;;15.50;;
69894;SDS011;57172;52.034;5.090;2024-03-22T06:16:11;30.55;;;12.75;;
69894;SDS011;57172;52.034;5.090;2024-03-22T06:18:36;41.65;;;15.93;;
69894;SDS011;57172;52.034;5.090;2024-03-22T06:21:02;34.30;;;14.57;;
69894;SDS011;57172;52.034;5.090;2024-03-22T06:23:29;34.60;;;15.07;;
69894;SDS011;57172;52.034;5.090;2024-03-22T06:25:55;34.70;;;15.27;;
69894;SDS011;57172;52.034;5.090;2024-03-22T06:28:21;37.30;;;15.30;;
69894;SDS011;57172;52.034;5.090;2024-03-22T06:30:47;32.35;;;14.25;;
69894;SDS011;57172;52.034;5.090;2024-03-22T06:33:13;34.00;;;13.50;;
69894;SDS011;57172;52.034;5.090;2024-03-22T06:35:43;34.78;;;14.90;;
69894;SDS011;57172;52.034;5.090;2024-03-22T06:38:09;37.20;;;15.02;;
69894;SDS011;57172;52.034;5.090;2024-03-22T06:40:35;31.35;;;13.95;;
69894;SDS011;57172;52.034;5.090;2024-03-22T06:43:01;34.37;;;14.37;;
69894;SDS011;57172;52.034;5.090;2024-03-22T06:45:27;31.58;;;12.00;;
69894;SDS011;57172;52.034;5.090;2024-03-22T06:47:53;31.33;;;13.02;;
69894;SDS011;57172;52.034;5.090;2024-03-22T06:50:19;33.00;;;13.77;;
69894;SDS011;57172;52.034;5.090;2024-03-22T06:52:52;35.00;;;15.27;;
69894;SDS011;57172;52.034;5.090;2024-03-22T06:55:21;36.92;;;14.63;;
69894;SDS011;57172;52.034;5.090;2024-03-22T06:57:48;27.02;;;11.95;;
69894;SDS011;57172;52.034;5.090;2024-03-22T07:00:16;35.90;;;14.32;;
69894;SDS011;57172;52.034;5.090;2024-03-22T07:02:43;36.50;;;14.63;;
69894;SDS011;57172;52.034;5.090;2024-03-22T07:05:09;30.45;;;12.95;;
69894;SDS011;57172;52.034;5.090;2024-03-22T07:07:36;35.88;;;14.90;;
69894;SDS011;57172;52.034;5.090;2024-03-22T07:10:03;34.53;;;13.18;;
69894;SDS011;57172;52.034;5.090;2024-03-22T07:12:31;35.50;;;14.13;;
69894;SDS011;57172;52.034;5.090;2024-03-22T07:14:59;35.17;;;13.52;;
69894;SDS011;57172;52.034;5.090;2024-03-22T07:17:25;36.92;;;14.82;;
69894;SDS011;57172;52.034;5.090;2024-03-22T07:19:51;39.33;;;15.80;;
69894;SDS011;57172;52.034;5.090;2024-03-22T07:22:18;37.42;;;14.75;;
69894;SDS011;57172;52.034;5.090;2024-03-22T07:24:44;35.42;;;13.75;;
69894;SDS011;57172;52.034;5.090;2024-03-22T07:27:10;39.50;;;16.08;;
69894;SDS011;57172;52.034;5.090;2024-03-22T07:29:36;34.37;;;14.20;;
69894;SDS011;57172;52.034;5.090;2024-03-22T07:32:03;35.42;;;13.70;;
69894;SDS011;57172;52.034;5.090;2024-03-22T07:34:29;37.90;;;15.70;;
69894;SDS011;57172;52.034;5.090;2024-03-22T07:36:55;36.03;;;15.02;;
69894;SDS011;57172;52.034;5.090;2024-03-22T07:39:21;40.77;;;16.00;;
69894;SDS011;57172;52.034;5.090;2024-03-22T07:41:47;38.88;;;16.23;;
69894;SDS011;57172;52.034;5.090;2024-03-22T07:44:14;40.75;;;16.00;;
69894;SDS011;57172;52.034;5.090;2024-03-22T07:46:43;39.08;;;15.60;;
69894;SDS011;57172;52.034;5.090;2024-03-22T07:49:11;44.00;;;14.95;;
69894;SDS011;57172;52.034;5.090;2024-03-22T07:51:39;42.83;;;15.68;;
69894;SDS011;57172;52.034;5.090;2024-03-22T07:54:05;34.95;;;13.15;;
69894;SDS011;57172;52.034;5.090;2024-03-22T07:56:31;34.47;;;14.73;;
69894;SDS011;57172;52.034;5.090;2024-03-22T07:58:57;36.03;;;14.20;;
69894;SDS011;57172;52.034;5.090;2024-03-22T08:01:23;35.72;;;14.27;;
69894;SDS011;57172;52.034;5.090;2024-03-22T08:03:50;32.13;;;13.60;;
69894;SDS011;57172;52.034;5.090;2024-03-22T08:06:16;33.88;;;12.93;;
69894;SDS011;57172;52.034;5.090;2024-03-22T08:08:43;33.65;;;13.45;;
69894;SDS011;57172;52.034;5.090;2024-03-22T08:11:09;32.17;;;12.10;;
69894;SDS011;57172;52.034;5.090;2024-03-22T08:13:35;31.73;;;13.23;;
69894;SDS011;57172;52.034;5.090;2024-03-22T08:16:01;34.03;;;13.10;;
69894;SDS011;57172;52.034;5.090;2024-03-22T08:18:26;33.90;;;12.63;;
69894;SDS011;57172;52.034;5.090;2024-03-22T08:20:52;35.40;;;12.70;;
69894;SDS011;57172;52.034;5.090;2024-03-22T08:23:18;31.00;;;12.38;;
69894;SDS011;57172;52.034;5.090;2024-03-22T08:25:46;31.60;;;12.90;;
69894;SDS011;57172;52.034;5.090;2024-03-22T08:28:12;30.60;;;11.85;;
69894;SDS011;57172;52.034;5.090;2024-03-22T08:30:41;28.45;;;11.13;;
69894;SDS011;57172;52.034;5.090;2024-03-22T08:33:07;37.03;;;13.38;;
69894;SDS011;57172;52.034;5.090;2024-03-22T08:35:37;29.45;;;11.52;;
69894;SDS011;57172;52.034;5.090;2024-03-22T08:38:03;36.05;;;12.57;;
69894;SDS011;57172;52.034;5.090;2024-03-22T08:40:30;33.38;;;12.13;;
69894;SDS011;57172;52.034;5.090;2024-03-22T08:42:56;31.00;;;12.63;;
69894;SDS011;57172;52.034;5.090;2024-03-22T08:45:22;32.15;;;12.30;;
69894;SDS011;57172;52.034;5.090;2024-03-22T08:47:48;34.63;;;12.00;;
69894;SDS011;57172;52.034;5.090;2024-03-22T08:50:14;26.58;;;10.45;;
69894;SDS011;57172;52.034;5.090;2024-03-22T08:52:40;27.27;;;10.50;;
69894;SDS011;57172;52.034;5.090;2024-03-22T08:55:06;33.45;;;11.57;;
69894;SDS011;57172;52.034;5.090;2024-03-22T08:57:35;28.35;;;11.38;;
69894;SDS011;57172;52.034;5.090;2024-03-22T09:00:01;33.38;;;11.93;;
69894;SDS011;57172;52.034;5.090;2024-03-22T09:02:27;31.50;;;10.85;;
69894;SDS011;57172;52.034;5.090;2024-03-22T09:04:53;28.17;;;11.13;;
69894;SDS011;57172;52.034;5.090;2024-03-22T09:07:19;24.33;;;9.52;;
69894;SDS011;57172;52.034;5.090;2024-03-22T09:09:45;28.30;;;9.53;;
69894;SDS011;57172;52.034;5.090;2024-03-22T09:12:11;31.75;;;10.35;;
69894;SDS011;57172;52.034;5.090;2024-03-22T09:14:37;27.98;;;10.73;;
69894;SDS011;57172;52.034;5.090;2024-03-22T09:17:03;30.20;;;9.57;;
69894;SDS011;57172;52.034;5.090;2024-03-22T09:19:29;25.98;;;9.57;;
69894;SDS011;57172;52.034;5.090;2024-03-22T09:21:55;24.83;;;10.70;;
69894;SDS011;57172;52.034;5.090;2024-03-22T09:24:20;26.70;;;10.90;;
69894;SDS011;57172;52.034;5.090;2024-03-22T09:26:46;25.75;;;10.18;;
69894;SDS011;57172;52.034;5.090;2024-03-22T09:29:15;28.92;;;10.45;;
69894;SDS011;57172;52.034;5.090;2024-03-22T09:31:41;27.08;;;10.90;;
69894;SDS011;57172;52.034;5.090;2024-03-22T09:34:07;31.93;;;10.97;;
69894;SDS011;57172;52.034;5.090;2024-03-22T09:36:33;28.40;;;10.30;;
69894;SDS011;57172;52.034;5.090;2024-03-22T09:39:01;29.67;;;10.75;;
69894;SDS011;57172;52.034;5.090;2024-03-22T09:41:27;25.98;;;10.30;;
69894;SDS011;57172;52.034;5.090;2024-03-22T09:43:57;27.73;;;10.73;;
69894;SDS011;57172;52.034;5.090;2024-03-22T09:46:26;26.63;;;10.82;;
69894;SDS011;57172;52.034;5.090;2024-03-22T09:48:53;28.40;;;10.93;;
69894;SDS011;57172;52.034;5.090;2024-03-22T09:51:19;27.73;;;9.85;;
69894;SDS011;57172;52.034;5.090;2024-03-22T09:53:49;27.67;;;9.98;;
69894;SDS011;57172;52.034;5.090;2024-03-22T09:56:18;22.80;;;9.00;;
69894;SDS011;57172;52.034;5.090;2024-03-22T09:58:46;26.05;;;10.38;;
69894;SDS011;57172;52.034;5.090;2024-03-22T10:01:12;26.80;;;11.25;;
69894;SDS011;57172;52.034;5.090;2024-03-22T10:03:38;30.92;;;11.38;;
69894;SDS011;57172;52.034;5.090;2024-03-22T10:06:05;31.55;;;10.30;;
69894;SDS011;57172;52.034;5.090;2024-03-22T10:08:31;25.15;;;11.60;;
69894;SDS011;57172;52.034;5.090;2024-03-22T10:10:57;28.27;;;10.95;;
69894;SDS011;57172;52.034;5.090;2024-03-22T10:13:27;26.13;;;9.93;;
69894;SDS011;57172;52.034;5.090;2024-03-22T10:15:53;26.57;;;10.80;;
69894;SDS011;57172;52.034;5.090;2024-03-22T10:18:19;27.33;;;10.57;;
69894;SDS011;57172;52.034;5.090;2024-03-22T10:20:45;24.30;;;10.55;;
69894;SDS011;57172;52.034;5.090;2024-03-22T10:23:11;24.47;;;11.20;;
69894;SDS011;57172;52.034;5.090;2024-03-22T10:25:37;24.73;;;10.27;;
69894;SDS011;57172;52.034;5.090;2024-03-22T10:28:03;31.85;;;11.80;;
69894;SDS011;57172;52.034;5.090;2024-03-22T10:30:30;23.67;;;10.82;;
69894;SDS011;57172;52.034;5.090;2024-03-22T10:32:56;27.42;;;11.32;;
69894;SDS011;57172;52.034;5.090;2024-03-22T10:35:23;25.53;;;11.53;;
69894;SDS011;57172;52.034;5.090;2024-03-22T10:37:51;24.55;;;11.52;;
69894;SDS011;57172;52.034;5.090;2024-03-22T10:40:19;29.08;;;12.68;;
69894;SDS011;57172;52.034;5.090;2024-03-22T10:42:46;25.48;;;11.25;;
69894;SDS011;57172;52.034;5.090;2024-03-22T10:45:12;25.60;;;11.70;;
69894;SDS011;57172;52.034;5.090;2024-03-22T10:47:38;25.23;;;11.82;;
69894;SDS011;57172;52.034;5.090;2024-03-22T10:50:08;24.52;;;11.32;;
69894;SDS011;57172;52.034;5.090;2024-03-22T10:55:11;25.75;;;10.90;;
69894;SDS011;57172;52.034;5.090;2024-03-22T10:57:42;25.70;;;10.98;;
69894;SDS011;57172;52.034;5.090;2024-03-22T11:00:11;29.67;;;12.85;;
69894;SDS011;57172;52.034;5.090;2024-03-22T11:02:37;32.05;;;12.43;;
69894;SDS011;57172;52.034;5.090;2024-03-22T11:05:04;26.42;;;11.82;;
69894;SDS011;57172;52.034;5.090;2024-03-22T11:07:31;24.42;;;9.85;;
69894;SDS011;57172;52.034;5.090;2024-03-22T11:09:57;28.33;;;11.77;;
69894;SDS011;57172;52.034;5.090;2024-03-22T11:12:26;24.63;;;10.10;;
69894;SDS011;57172;52.034;5.090;2024-03-22T11:14:53;22.90;;;10.20;;
69894;SDS011;57172;52.034;5.090;2024-03-22T11:17:21;21.83;;;10.82;;
69894;SDS011;57172;52.034;5.090;2024-03-22T11:19:53;25.95;;;11.35;;
69894;SDS011;57172;52.034;5.090;2024-03-22T11:22:20;21.57;;;9.23;;
69894;SDS011;57172;52.034;5.090;2024-03-22T11:24:46;15.98;;;8.75;;
69894;SDS011;57172;52.034;5.090;2024-03-22T11:27:11;21.23;;;8.73;;
69894;SDS011;57172;52.034;5.090;2024-03-22T11:29:38;20.27;;;9.90;;
69894;SDS011;57172;52.034;5.090;2024-03-22T11:32:06;18.63;;;9.60;;
69894;SDS011;57172;52.034;5.090;2024-03-22T11:34:39;18.35;;;8.80;;
69894;SDS011;57172;52.034;5.090;2024-03-22T11:37:06;15.57;;;8.80;;
69894;SDS011;57172;52.034;5.090;2024-03-22T11:39:38;21.50;;;9.20;;
69894;SDS011;57172;52.034;5.090;2024-03-22T11:42:05;13.53;;;6.93;;
69894;SDS011;57172;52.034;5.090;2024-03-22T11:44:32;12.80;;;6.32;;
69894;SDS011;57172;52.034;5.090;2024-03-22T11:47:00;14.82;;;7.90;;
69894;SDS011;57172;52.034;5.090;2024-03-22T11:49:26;16.98;;;7.82;;
69894;SDS011;57172;52.034;5.090;2024-03-22T11:51:52;17.23;;;8.83;;
69894;SDS011;57172;52.034;5.090;2024-03-22T11:54:21;12.17;;;6.70;;
69894;SDS011;57172;52.034;5.090;2024-03-22T11:56:51;12.85;;;7.50;;
69894;SDS011;57172;52.034;5.090;2024-03-22T11:59:20;13.57;;;7.97;;
69894;SDS011;57172;52.034;5.090;2024-03-22T12:01:46;18.10;;;7.70;;
69894;SDS011;57172;52.034;5.090;2024-03-22T12:04:12;14.17;;;7.50;;
69894;SDS011;57172;52.034;5.090;2024-03-22T12:06:49;14.48;;;7.68;;
69894;SDS011;57172;52.034;5.090;2024-03-22T12:09:15;16.35;;;7.95;;
69894;SDS011;57172;52.034;5.090;2024-03-22T12:11:41;21.10;;;8.35;;
69894;SDS011;57172;52.034;5.090;2024-03-22T12:14:07;15.60;;;8.13;;
69894;SDS011;57172;52.034;5.090;2024-03-22T12:16:33;18.23;;;8.85;;
69894;SDS011;57172;52.034;5.090;2024-03-22T12:18:59;16.10;;;7.68;;
69894;SDS011;57172;52.034;5.090;2024-03-22T12:21:25;15.93;;;8.70;;
69894;SDS011;57172;52.034;5.090;2024-03-22T12:23:51;17.10;;;8.48;;
69894;SDS011;57172;52.034;5.090;2024-03-22T12:26:17;17.75;;;8.73;;
69894;SDS011;57172;52.034;5.090;2024-03-22T12:28:42;17.88;;;9.32;;
69894;SDS011;57172;52.034;5.090;2024-03-22T12:31:09;18.70;;;8.87;;
69894;SDS011;57172;52.034;5.090;2024-03-22T12:33:37;23.60;;;9.82;;
69894;SDS011;57172;52.034;5.090;2024-03-22T12:36:03;22.67;;;9.90;;
69894;SDS011;57172;52.034;5.090;2024-03-22T12:38:29;22.20;;;9.40;;
69894;SDS011;57172;52.034;5.090;2024-03-22T12:40:55;19.95;;;8.93;;
69894;SDS011;57172;52.034;5.090;2024-03-22T12:43:22;19.77;;;9.60;;
69894;SDS011;57172;52.034;5.090;2024-03-22T12:45:48;21.48;;;9.27;;
69894;SDS011;57172;52.034;5.090;2024-03-22T12:48:14;24.10;;;10.20;;
69894;SDS011;57172;52.034;5.090;2024-03-22T12:50:40;20.15;;;9.18;;
69894;SDS011;57172;52.034;5.090;2024-03-22T12:53:06;18.52;;;9.35;;
69894;SDS011;57172;52.034;5.090;2024-03-22T12:55:32;24.03;;;9.73;;
69894;SDS011;57172;52.034;5.090;2024-03-22T12:57:58;22.73;;;9.57;;
69894;SDS011;57172;52.034;5.090;2024-03-22T13:00:24;20.20;;;8.40;;
69894;SDS011;57172;52.034;5.090;2024-03-22T13:02:50;20.63;;;8.00;;
69894;SDS011;57172;52.034;5.090;2024-03-22T13:05:17;17.42;;;7.10;;
69894;SDS011;57172;52.034;5.090;2024-03-22T13:07:43;17.33;;;6.28;;
69894;SDS011;57172;52.034;5.090;2024-03-22T13:10:09;19.38;;;6.80;;
69894;SDS011;57172;52.034;5.090;2024-03-22T13:12:35;19.08;;;7.13;;
69894;SDS011;57172;52.034;5.090;2024-03-22T13:15:02;14.77;;;5.77;;
69894;SDS011;57172;52.034;5.090;2024-03-22T13:17:28;20.50;;;7.47;;
69894;SDS011;57172;52.034;5.090;2024-03-22T13:19:54;19.35;;;7.50;;
69894;SDS011;57172;52.034;5.090;2024-03-22T13:22:20;16.58;;;7.00;;
69894;SDS011;57172;52.034;5.090;2024-03-22T13:24:46;21.33;;;7.97;;
69894;SDS011;57172;52.034;5.090;2024-03-22T13:27:12;20.33;;;6.95;;
69894;SDS011;57172;52.034;5.090;2024-03-22T13:29:39;20.48;;;7.18;;
69894;SDS011;57172;52.034;5.090;2024-03-22T13:32:05;17.00;;;7.28;;
69894;SDS011;57172;52.034;5.090;2024-03-22T13:34:35;17.13;;;6.97;;
69894;SDS011;57172;52.034;5.090;2024-03-22T13:37:04;15.93;;;6.10;;
69894;SDS011;57172;52.034;5.090;2024-03-22T13:39:31;14.30;;;5.68;;
69894;SDS011;57172;52.034;5.090;2024-03-22T13:41:57;13.65;;;5.55;;
69894;SDS011;57172;52.034;5.090;2024-03-22T13:44:24;15.38;;;5.20;;
69894;SDS011;57172;52.034;5.090;2024-03-22T13:46:50;15.00;;;6.07;;
69894;SDS011;57172;52.034;5.090;2024-03-22T13:49:17;12.30;;;5.70;;
69894;SDS011;57172;52.034;5.090;2024-03-22T13:51:46;16.10;;;5.50;;
69894;SDS011;57172;52.034;5.090;2024-03-22T13:54:13;15.30;;;5.38;;
69894;SDS011;57172;52.034;5.090;2024-03-22T13:56:39;15.20;;;6.20;;
69894;SDS011;57172;52.034;5.090;2024-03-22T13:59:05;16.00;;;6.27;;
69894;SDS011;57172;52.034;5.090;2024-03-22T14:01:34;16.30;;;6.47;;
69894;SDS011;57172;52.034;5.090;2024-03-22T14:04:02;22.42;;;7.00;;
69894;SDS011;57172;52.034;5.090;2024-03-22T14:06:29;21.20;;;6.97;;
69894;SDS011;57172;52.034;5.090;2024-03-22T14:08:56;18.10;;;6.88;;
69894;SDS011;57172;52.034;5.090;2024-03-22T14:11:29;19.42;;;7.47;;
69894;SDS011;57172;52.034;5.090;2024-03-22T14:13:58;20.67;;;7.60;;
69894;SDS011;57172;52.034;5.090;2024-03-22T14:16:25;24.63;;;7.93;;
69894;SDS011;57172;52.034;5.090;2024-03-22T14:18:51;20.05;;;7.70;;
69894;SDS011;57172;52.034;5.090;2024-03-22T14:21:18;18.05;;;7.90;;
69894;SDS011;57172;52.034;5.090;2024-03-22T14:23:46;17.67;;;7.95;;